sensor_id;sensor_type;location;lat;lon;timestamp;temperature;humidity
71514;DHT22;59335;46.652;21.272;2022-07-06T00:02:32;32.12;40.46
71514;DHT22;59335;46.652;21.272;2022-07-06T00:05:35;32.06;40.59
71514;DHT22;59335;46.652;21.272;2022-07-06T00:08:38;32.08;40.55
71514;DHT22;59335;46.652;21.272;2022-07-06T00:11:41;32.10;40.52
71514;DHT22;59335;46.652;21.272;2022-07-06T00:14:44;32.09;40.55
71514;DHT22;59335;46.652;21.272;2022-07-06T00:17:47;32.09;40.59
71514;DHT22;59335;46.652;21.272;2022-07-06T00:20:50;32.09;40.56
71514;DHT22;59335;46.652;21.272;2022-07-06T00:23:52;32.04;40.63
71514;DHT22;59335;46.652;21.272;2022-07-06T00:26:55;32.08;40.56
71514;DHT22;59335;46.652;21.272;2022-07-06T00:29:58;32.05;40.67
71514;DHT22;59335;46.652;21.272;2022-07-06T00:33:01;32.04;40.70
71514;DHT22;59335;46.652;21.272;2022-07-06T00:36:04;32.05;40.67
71514;DHT22;59335;46.652;21.272;2022-07-06T00:39:06;32.02;40.73
71514;DHT22;59335;46.652;21.272;2022-07-06T00:42:09;32.04;40.66
71514;DHT22;59335;46.652;21.272;2022-07-06T00:45:12;32.02;40.78
71514;DHT22;59335;46.652;21.272;2022-07-06T00:48:15;32.01;40.77
71514;DHT22;59335;46.652;21.272;2022-07-06T00:51:19;32.01;40.77
71514;DHT22;59335;46.652;21.272;2022-07-06T00:54:25;32.02;40.77
71514;DHT22;59335;46.652;21.272;2022-07-06T00:57:29;31.98;40.79
71514;DHT22;59335;46.652;21.272;2022-07-06T01:00:33;32.02;40.74
71514;DHT22;59335;46.652;21.272;2022-07-06T01:03:36;32.04;40.78
71514;DHT22;59335;46.652;21.272;2022-07-06T01:06:39;31.99;40.78
71514;DHT22;59335;46.652;21.272;2022-07-06T01:09:43;31.96;40.85
71514;DHT22;59335;46.652;21.272;2022-07-06T01:12:47;32.01;40.81
71514;DHT22;59335;46.652;21.272;2022-07-06T01:15:51;31.95;40.94
71514;DHT22;59335;46.652;21.272;2022-07-06T01:18:54;31.95;40.96
71514;DHT22;59335;46.652;21.272;2022-07-06T01:21:56;31.96;40.90
71514;DHT22;59335;46.652;21.272;2022-07-06T01:24:59;31.93;40.96
71514;DHT22;59335;46.652;21.272;2022-07-06T01:28:02;31.93;41.00
71514;DHT22;59335;46.652;21.272;2022-07-06T01:31:05;31.92;41.05
71514;DHT22;59335;46.652;21.272;2022-07-06T01:34:09;31.96;40.98
71514;DHT22;59335;46.652;21.272;2022-07-06T01:37:13;31.98;41.05
71514;DHT22;59335;46.652;21.272;2022-07-06T01:40:16;31.93;41.02
71514;DHT22;59335;46.652;21.272;2022-07-06T01:43:19;31.92;41.09
71514;DHT22;59335;46.652;21.272;2022-07-06T01:46:22;31.92;41.12
71514;DHT22;59335;46.652;21.272;2022-07-06T01:49:25;31.92;41.09
71514;DHT22;59335;46.652;21.272;2022-07-06T01:52:28;31.91;41.14
71514;DHT22;59335;46.652;21.272;2022-07-06T01:55:31;31.93;41.09
71514;DHT22;59335;46.652;21.272;2022-07-06T01:58:35;31.92;41.11
71514;DHT22;59335;46.652;21.272;2022-07-06T02:01:37;31.95;41.08
71514;DHT22;59335;46.652;21.272;2022-07-06T02:04:40;31.96;41.02
71514;DHT22;59335;46.652;21.272;2022-07-06T02:07:43;31.93;41.05
71514;DHT22;59335;46.652;21.272;2022-07-06T02:10:47;31.92;41.15
71514;DHT22;59335;46.652;21.272;2022-07-06T02:13:52;31.92;41.13
71514;DHT22;59335;46.652;21.272;2022-07-06T02:16:54;31.93;41.16
71514;DHT22;59335;46.652;21.272;2022-07-06T02:19:59;31.91;41.13
71514;DHT22;59335;46.652;21.272;2022-07-06T02:23:02;31.89;41.19
71514;DHT22;59335;46.652;21.272;2022-07-06T02:26:05;31.92;41.16
71514;DHT22;59335;46.652;21.272;2022-07-06T02:29:09;31.89;41.16
71514;DHT22;59335;46.652;21.272;2022-07-06T02:32:11;31.89;41.14
71514;DHT22;59335;46.652;21.272;2022-07-06T02:35:14;31.88;41.23
71514;DHT22;59335;46.652;21.272;2022-07-06T02:38:18;31.85;41.21
71514;DHT22;59335;46.652;21.272;2022-07-06T02:41:21;31.86;41.23
71514;DHT22;59335;46.652;21.272;2022-07-06T02:44:24;31.88;41.26
71514;DHT22;59335;46.652;21.272;2022-07-06T02:47:27;31.84;41.31
71514;DHT22;59335;46.652;21.272;2022-07-06T02:50:30;31.85;41.30
71514;DHT22;59335;46.652;21.272;2022-07-06T02:53:33;31.85;41.26
71514;DHT22;59335;46.652;21.272;2022-07-06T02:56:36;31.88;41.18
71514;DHT22;59335;46.652;21.272;2022-07-06T02:59:39;31.85;41.25
71514;DHT22;59335;46.652;21.272;2022-07-06T03:02:42;31.86;41.26
71514;DHT22;59335;46.652;21.272;2022-07-06T03:05:45;31.81;41.40
71514;DHT22;59335;46.652;21.272;2022-07-06T03:08:51;31.84;41.34
71514;DHT22;59335;46.652;21.272;2022-07-06T03:11:53;31.85;41.28
71514;DHT22;59335;46.652;21.272;2022-07-06T03:14:56;31.82;41.30
71514;DHT22;59335;46.652;21.272;2022-07-06T03:17:59;31.79;41.34
71514;DHT22;59335;46.652;21.272;2022-07-06T03:21:02;31.75;41.36
71514;DHT22;59335;46.652;21.272;2022-07-06T03:24:06;31.77;41.39
71514;DHT22;59335;46.652;21.272;2022-07-06T03:27:09;31.79;41.35
71514;DHT22;59335;46.652;21.272;2022-07-06T03:30:12;31.77;41.40
71514;DHT22;59335;46.652;21.272;2022-07-06T03:33:22;31.82;41.25
71514;DHT22;59335;46.652;21.272;2022-07-06T03:36:25;31.77;41.32
71514;DHT22;59335;46.652;21.272;2022-07-06T03:39:28;31.81;41.32
71514;DHT22;59335;46.652;21.272;2022-07-06T03:42:31;31.77;41.36
71514;DHT22;59335;46.652;21.272;2022-07-06T03:45:34;31.74;41.37
71514;DHT22;59335;46.652;21.272;2022-07-06T03:48:38;31.77;41.27
71514;DHT22;59335;46.652;21.272;2022-07-06T03:51:42;31.79;41.26
71514;DHT22;59335;46.652;21.272;2022-07-06T03:54:46;31.79;41.28
71514;DHT22;59335;46.652;21.272;2022-07-06T03:57:54;31.74;41.32
71514;DHT22;59335;46.652;21.272;2022-07-06T04:00:58;31.78;41.27
71514;DHT22;59335;46.652;21.272;2022-07-06T04:04:02;31.77;41.33
71514;DHT22;59335;46.652;21.272;2022-07-06T04:07:06;31.75;41.32
71514;DHT22;59335;46.652;21.272;2022-07-06T04:10:09;31.77;41.34
71514;DHT22;59335;46.652;21.272;2022-07-06T04:13:11;31.78;41.34
71514;DHT22;59335;46.652;21.272;2022-07-06T04:16:15;31.78;41.27
71514;DHT22;59335;46.652;21.272;2022-07-06T04:19:18;31.78;41.27
71514;DHT22;59335;46.652;21.272;2022-07-06T04:22:21;31.77;41.25
71514;DHT22;59335;46.652;21.272;2022-07-06T04:25:24;31.75;41.16
71514;DHT22;59335;46.652;21.272;2022-07-06T04:28:29;31.77;41.13
71514;DHT22;59335;46.652;21.272;2022-07-06T04:31:32;31.75;41.10
71514;DHT22;59335;46.652;21.272;2022-07-06T04:34:35;31.74;41.04
71514;DHT22;59335;46.652;21.272;2022-07-06T04:37:38;31.74;41.03
71514;DHT22;59335;46.652;21.272;2022-07-06T04:40:41;31.74;40.94
71514;DHT22;59335;46.652;21.272;2022-07-06T04:43:48;31.71;40.98
71514;DHT22;59335;46.652;21.272;2022-07-06T04:46:52;31.65;40.90
71514;DHT22;59335;46.652;21.272;2022-07-06T04:49:57;31.62;40.73
71514;DHT22;59335;46.652;21.272;2022-07-06T04:52:59;31.64;40.53
71514;DHT22;59335;46.652;21.272;2022-07-06T04:56:03;31.54;40.72
71514;DHT22;59335;46.652;21.272;2022-07-06T04:59:09;31.35;40.96
71514;DHT22;59335;46.652;21.272;2022-07-06T05:02:12;31.37;40.89
71514;DHT22;59335;46.652;21.272;2022-07-06T05:05:16;31.33;41.01
71514;DHT22;59335;46.652;21.272;2022-07-06T05:08:19;31.20;41.22
71514;DHT22;59335;46.652;21.272;2022-07-06T05:11:23;31.20;41.17
71514;DHT22;59335;46.652;21.272;2022-07-06T05:14:26;31.16;41.35
71514;DHT22;59335;46.652;21.272;2022-07-06T05:17:30;31.07;41.44
71514;DHT22;59335;46.652;21.272;2022-07-06T05:20:35;31.04;41.50
71514;DHT22;59335;46.652;21.272;2022-07-06T05:23:39;31.10;41.39
71514;DHT22;59335;46.652;21.272;2022-07-06T05:26:42;30.99;41.53
71514;DHT22;59335;46.652;21.272;2022-07-06T05:29:45;30.99;41.97
71514;DHT22;59335;46.652;21.272;2022-07-06T05:32:48;31.06;41.42
71514;DHT22;59335;46.652;21.272;2022-07-06T05:35:51;31.02;42.37
71514;DHT22;59335;46.652;21.272;2022-07-06T05:38:59;31.04;41.87
71514;DHT22;59335;46.652;21.272;2022-07-06T05:42:03;31.13;41.36
71514;DHT22;59335;46.652;21.272;2022-07-06T05:45:07;31.14;41.25
71514;DHT22;59335;46.652;21.272;2022-07-06T05:48:09;31.17;41.34
71514;DHT22;59335;46.652;21.272;2022-07-06T05:51:32;31.10;41.30
71514;DHT22;59335;46.652;21.272;2022-07-06T05:54:35;31.09;41.27
71514;DHT22;59335;46.652;21.272;2022-07-06T05:57:38;31.13;41.31
71514;DHT22;59335;46.652;21.272;2022-07-06T06:00:43;31.03;41.44
71514;DHT22;59335;46.652;21.272;2022-07-06T06:03:50;31.09;41.24
71514;DHT22;59335;46.652;21.272;2022-07-06T06:06:53;30.99;41.31
71514;DHT22;59335;46.652;21.272;2022-07-06T06:09:56;30.95;41.32
71514;DHT22;59335;46.652;21.272;2022-07-06T06:12:59;30.93;41.44
71514;DHT22;59335;46.652;21.272;2022-07-06T06:16:05;30.89;41.55
71514;DHT22;59335;46.652;21.272;2022-07-06T06:19:09;30.93;41.54
71514;DHT22;59335;46.652;21.272;2022-07-06T06:22:11;30.96;41.51
71514;DHT22;59335;46.652;21.272;2022-07-06T06:25:15;30.99;41.50
71514;DHT22;59335;46.652;21.272;2022-07-06T06:28:18;30.93;41.54
71514;DHT22;59335;46.652;21.272;2022-07-06T06:31:21;31.00;41.35
71514;DHT22;59335;46.652;21.272;2022-07-06T06:34:24;30.99;41.29
71514;DHT22;59335;46.652;21.272;2022-07-06T06:37:27;30.97;41.40
71514;DHT22;59335;46.652;21.272;2022-07-06T06:40:30;30.97;41.39
71514;DHT22;59335;46.652;21.272;2022-07-06T06:43:32;30.96;41.39
71514;DHT22;59335;46.652;21.272;2022-07-06T06:46:41;31.02;41.34
71514;DHT22;59335;46.652;21.272;2022-07-06T06:49:45;31.00;41.32
71514;DHT22;59335;46.652;21.272;2022-07-06T06:52:51;31.00;41.32
71514;DHT22;59335;46.652;21.272;2022-07-06T06:55:54;31.02;41.35
71514;DHT22;59335;46.652;21.272;2022-07-06T06:58:59;30.99;41.40
71514;DHT22;59335;46.652;21.272;2022-07-06T07:02:21;30.92;41.51
71514;DHT22;59335;46.652;21.272;2022-07-06T07:05:26;30.86;41.71
71514;DHT22;59335;46.652;21.272;2022-07-06T07:08:30;30.96;41.56
71514;DHT22;59335;46.652;21.272;2022-07-06T07:11:35;30.92;41.69
71514;DHT22;59335;46.652;21.272;2022-07-06T07:14:40;30.90;41.71
71514;DHT22;59335;46.652;21.272;2022-07-06T07:17:46;30.99;41.58
71514;DHT22;59335;46.652;21.272;2022-07-06T07:20:50;30.93;41.60
71514;DHT22;59335;46.652;21.272;2022-07-06T07:23:53;30.95;41.57
71514;DHT22;59335;46.652;21.272;2022-07-06T07:26:56;30.96;41.59
71514;DHT22;59335;46.652;21.272;2022-07-06T07:30:00;30.96;41.54
71514;DHT22;59335;46.652;21.272;2022-07-06T07:33:06;30.97;41.63
71514;DHT22;59335;46.652;21.272;2022-07-06T07:36:11;30.90;41.70
71514;DHT22;59335;46.652;21.272;2022-07-06T07:39:15;30.92;41.73
71514;DHT22;59335;46.652;21.272;2022-07-06T07:42:19;30.90;41.88
71514;DHT22;59335;46.652;21.272;2022-07-06T07:45:23;30.90;41.84
71514;DHT22;59335;46.652;21.272;2022-07-06T07:48:28;30.92;41.81
71514;DHT22;59335;46.652;21.272;2022-07-06T07:51:33;30.93;41.81
71514;DHT22;59335;46.652;21.272;2022-07-06T07:54:37;30.92;41.86
71514;DHT22;59335;46.652;21.272;2022-07-06T07:57:49;30.87;41.95
71514;DHT22;59335;46.652;21.272;2022-07-06T08:00:53;30.89;41.91
71514;DHT22;59335;46.652;21.272;2022-07-06T08:03:55;30.82;42.12
71514;DHT22;59335;46.652;21.272;2022-07-06T08:06:58;30.79;42.19
71514;DHT22;59335;46.652;21.272;2022-07-06T08:10:04;30.75;42.30
71514;DHT22;59335;46.652;21.272;2022-07-06T08:13:08;30.75;42.41
71514;DHT22;59335;46.652;21.272;2022-07-06T08:16:13;30.75;42.35
71514;DHT22;59335;46.652;21.272;2022-07-06T08:19:17;30.76;42.27
71514;DHT22;59335;46.652;21.272;2022-07-06T08:22:19;30.71;42.49
71514;DHT22;59335;46.652;21.272;2022-07-06T08:25:22;30.74;42.45
71514;DHT22;59335;46.652;21.272;2022-07-06T08:28:26;30.74;42.57
71514;DHT22;59335;46.652;21.272;2022-07-06T08:31:30;30.74;42.73
71514;DHT22;59335;46.652;21.272;2022-07-06T08:34:54;30.66;43.02
71514;DHT22;59335;46.652;21.272;2022-07-06T08:37:59;30.69;43.01
71514;DHT22;59335;46.652;21.272;2022-07-06T08:41:02;30.69;43.02
71514;DHT22;59335;46.652;21.272;2022-07-06T08:44:06;30.66;43.23
71514;DHT22;59335;46.652;21.272;2022-07-06T08:47:09;30.68;43.33
71514;DHT22;59335;46.652;21.272;2022-07-06T08:50:17;30.76;43.39
71514;DHT22;59335;46.652;21.272;2022-07-06T08:53:24;30.72;44.05
71514;DHT22;59335;46.652;21.272;2022-07-06T08:56:27;30.68;44.19
71514;DHT22;59335;46.652;21.272;2022-07-06T08:59:31;30.71;44.15
71514;DHT22;59335;46.652;21.272;2022-07-06T09:02:35;30.66;44.13
71514;DHT22;59335;46.652;21.272;2022-07-06T09:05:40;30.69;44.00
71514;DHT22;59335;46.652;21.272;2022-07-06T09:08:43;30.72;43.73
71514;DHT22;59335;46.652;21.272;2022-07-06T09:11:46;30.66;43.76
71514;DHT22;59335;46.652;21.272;2022-07-06T09:14:50;30.64;43.74
71514;DHT22;59335;46.652;21.272;2022-07-06T09:17:56;30.72;43.60
71514;DHT22;59335;46.652;21.272;2022-07-06T09:21:00;30.69;43.58
71514;DHT22;59335;46.652;21.272;2022-07-06T09:24:07;30.71;43.55
71514;DHT22;59335;46.652;21.272;2022-07-06T09:27:16;30.75;43.31
71514;DHT22;59335;46.652;21.272;2022-07-06T09:30:21;30.71;43.48
71514;DHT22;59335;46.652;21.272;2022-07-06T09:33:24;30.68;43.51
71514;DHT22;59335;46.652;21.272;2022-07-06T09:39:44;30.76;43.24
71514;DHT22;59335;46.652;21.272;2022-07-06T09:42:47;30.79;43.20
71514;DHT22;59335;46.652;21.272;2022-07-06T09:45:57;30.71;43.24
71514;DHT22;59335;46.652;21.272;2022-07-06T09:49:00;30.75;43.17
71514;DHT22;59335;46.652;21.272;2022-07-06T09:52:05;30.75;43.20
71514;DHT22;59335;46.652;21.272;2022-07-06T09:55:14;30.72;43.60
71514;DHT22;59335;46.652;21.272;2022-07-06T09:58:19;30.75;43.55
71514;DHT22;59335;46.652;21.272;2022-07-06T10:01:42;30.79;43.68
71514;DHT22;59335;46.652;21.272;2022-07-06T10:04:48;30.71;43.98
71514;DHT22;59335;46.652;21.272;2022-07-06T10:07:51;30.71;43.94
71514;DHT22;59335;46.652;21.272;2022-07-06T10:10:54;30.74;43.96
71514;DHT22;59335;46.652;21.272;2022-07-06T10:13:57;30.72;43.86
71514;DHT22;59335;46.652;21.272;2022-07-06T10:17:02;30.74;43.80
71514;DHT22;59335;46.652;21.272;2022-07-06T10:20:08;30.66;43.92
71514;DHT22;59335;46.652;21.272;2022-07-06T10:23:11;30.66;43.88
71514;DHT22;59335;46.652;21.272;2022-07-06T10:26:17;30.69;43.85
71514;DHT22;59335;46.652;21.272;2022-07-06T10:29:23;30.74;43.77
71514;DHT22;59335;46.652;21.272;2022-07-06T10:32:28;30.69;43.84
71514;DHT22;59335;46.652;21.272;2022-07-06T10:35:31;30.71;43.91
71514;DHT22;59335;46.652;21.272;2022-07-06T10:38:35;30.71;44.04
71514;DHT22;59335;46.652;21.272;2022-07-06T10:41:38;30.66;44.28
71514;DHT22;59335;46.652;21.272;2022-07-06T10:44:44;30.66;44.34
71514;DHT22;59335;46.652;21.272;2022-07-06T10:47:47;30.72;44.41
71514;DHT22;59335;46.652;21.272;2022-07-06T10:50:55;30.68;44.74
71514;DHT22;59335;46.652;21.272;2022-07-06T10:54:05;30.68;44.83
71514;DHT22;59335;46.652;21.272;2022-07-06T10:57:09;30.75;45.04
71514;DHT22;59335;46.652;21.272;2022-07-06T11:00:13;30.75;45.22
71514;DHT22;59335;46.652;21.272;2022-07-06T11:06:41;30.71;45.92
71514;DHT22;59335;46.652;21.272;2022-07-06T11:09:56;30.65;46.51
71514;DHT22;59335;46.652;21.272;2022-07-06T11:13:03;30.68;46.80
71514;DHT22;59335;46.652;21.272;2022-07-06T11:16:07;30.68;46.85
71514;DHT22;59335;46.652;21.272;2022-07-06T11:19:14;30.69;46.98
71514;DHT22;59335;46.652;21.272;2022-07-06T11:22:17;30.74;47.00
71514;DHT22;59335;46.652;21.272;2022-07-06T11:25:24;30.78;47.00
71514;DHT22;59335;46.652;21.272;2022-07-06T11:28:28;30.82;46.94
71514;DHT22;59335;46.652;21.272;2022-07-06T11:31:37;30.80;46.85
71514;DHT22;59335;46.652;21.272;2022-07-06T11:34:43;30.83;46.72
71514;DHT22;59335;46.652;21.272;2022-07-06T11:37:46;30.85;46.78
71514;DHT22;59335;46.652;21.272;2022-07-06T11:40:53;30.82;46.97
71514;DHT22;59335;46.652;21.272;2022-07-06T11:43:56;30.86;46.56
71514;DHT22;59335;46.652;21.272;2022-07-06T11:47:00;30.86;46.56
71514;DHT22;59335;46.652;21.272;2022-07-06T11:50:05;30.92;46.12
71514;DHT22;59335;46.652;21.272;2022-07-06T11:53:08;30.92;46.17
71514;DHT22;59335;46.652;21.272;2022-07-06T11:56:12;30.97;46.04
71514;DHT22;59335;46.652;21.272;2022-07-06T11:59:15;31.00;45.91
71514;DHT22;59335;46.652;21.272;2022-07-06T12:02:18;31.03;45.76
71514;DHT22;59335;46.652;21.272;2022-07-06T12:05:31;31.09;45.56
71514;DHT22;59335;46.652;21.272;2022-07-06T12:08:50;31.12;45.28
71514;DHT22;59335;46.652;21.272;2022-07-06T12:11:53;31.16;45.14
71514;DHT22;59335;46.652;21.272;2022-07-06T12:14:56;31.20;45.02
71514;DHT22;59335;46.652;21.272;2022-07-06T12:17:59;31.22;44.93
71514;DHT22;59335;46.652;21.272;2022-07-06T12:21:02;31.26;44.77
71514;DHT22;59335;46.652;21.272;2022-07-06T12:24:06;31.26;44.65
71514;DHT22;59335;46.652;21.272;2022-07-06T12:27:14;31.27;44.60
71514;DHT22;59335;46.652;21.272;2022-07-06T12:30:17;31.33;44.47
71514;DHT22;59335;46.652;21.272;2022-07-06T12:33:24;31.30;44.45
71514;DHT22;59335;46.652;21.272;2022-07-06T12:36:31;31.35;44.39
71514;DHT22;59335;46.652;21.272;2022-07-06T12:39:47;31.38;44.27
71514;DHT22;59335;46.652;21.272;2022-07-06T12:42:50;31.37;44.16
71514;DHT22;59335;46.652;21.272;2022-07-06T12:45:53;31.37;44.15
71514;DHT22;59335;46.652;21.272;2022-07-06T12:48:56;31.41;44.12
71514;DHT22;59335;46.652;21.272;2022-07-06T12:52:10;31.40;44.06
71514;DHT22;59335;46.652;21.272;2022-07-06T12:55:12;31.40;44.04
71514;DHT22;59335;46.652;21.272;2022-07-06T12:58:18;31.41;43.98
71514;DHT22;59335;46.652;21.272;2022-07-06T13:01:21;31.41;43.99
71514;DHT22;59335;46.652;21.272;2022-07-06T13:04:30;31.44;43.88
71514;DHT22;59335;46.652;21.272;2022-07-06T13:07:35;31.41;43.84
71514;DHT22;59335;46.652;21.272;2022-07-06T13:10:39;31.44;43.82
71514;DHT22;59335;46.652;21.272;2022-07-06T13:13:44;31.44;43.78
71514;DHT22;59335;46.652;21.272;2022-07-06T13:16:47;31.47;43.70
71514;DHT22;59335;46.652;21.272;2022-07-06T13:19:50;31.47;43.65
71514;DHT22;59335;46.652;21.272;2022-07-06T13:22:53;31.47;43.63
71514;DHT22;59335;46.652;21.272;2022-07-06T13:25:56;31.50;43.56
71514;DHT22;59335;46.652;21.272;2022-07-06T13:29:02;31.50;43.55
71514;DHT22;59335;46.652;21.272;2022-07-06T13:32:06;31.52;43.45
71514;DHT22;59335;46.652;21.272;2022-07-06T13:35:09;31.55;43.36
71514;DHT22;59335;46.652;21.272;2022-07-06T13:38:12;31.57;43.29
71514;DHT22;59335;46.652;21.272;2022-07-06T13:41:17;31.57;43.22
71514;DHT22;59335;46.652;21.272;2022-07-06T13:44:19;31.57;43.20
71514;DHT22;59335;46.652;21.272;2022-07-06T13:47:22;31.57;43.15
71514;DHT22;59335;46.652;21.272;2022-07-06T13:50:25;31.57;43.14
71514;DHT22;59335;46.652;21.272;2022-07-06T13:53:29;31.61;43.07
71514;DHT22;59335;46.652;21.272;2022-07-06T13:56:34;31.60;43.07
71514;DHT22;59335;46.652;21.272;2022-07-06T13:59:36;31.62;42.91
71514;DHT22;59335;46.652;21.272;2022-07-06T14:02:39;31.62;42.88
71514;DHT22;59335;46.652;21.272;2022-07-06T14:05:42;31.64;42.76
71514;DHT22;59335;46.652;21.272;2022-07-06T14:08:45;31.64;42.68
71514;DHT22;59335;46.652;21.272;2022-07-06T14:11:48;31.65;42.64
71514;DHT22;59335;46.652;21.272;2022-07-06T14:14:50;31.65;42.61
71514;DHT22;59335;46.652;21.272;2022-07-06T14:17:53;31.65;42.51
71514;DHT22;59335;46.652;21.272;2022-07-06T14:20:56;31.65;42.50
71514;DHT22;59335;46.652;21.272;2022-07-06T14:23:59;31.64;42.43
71514;DHT22;59335;46.652;21.272;2022-07-06T14:27:02;31.68;42.37
71514;DHT22;59335;46.652;21.272;2022-07-06T14:30:05;31.67;42.44
71514;DHT22;59335;46.652;21.272;2022-07-06T14:33:08;31.64;42.44
71514;DHT22;59335;46.652;21.272;2022-07-06T14:36:11;31.65;42.46
71514;DHT22;59335;46.652;21.272;2022-07-06T14:39:14;31.67;42.44
71514;DHT22;59335;46.652;21.272;2022-07-06T14:42:16;31.67;42.52
71514;DHT22;59335;46.652;21.272;2022-07-06T14:45:19;31.65;42.58
71514;DHT22;59335;46.652;21.272;2022-07-06T14:48:22;31.67;42.56
71514;DHT22;59335;46.652;21.272;2022-07-06T14:51:24;31.67;42.43
71514;DHT22;59335;46.652;21.272;2022-07-06T14:54:27;31.68;42.31
71514;DHT22;59335;46.652;21.272;2022-07-06T14:57:30;31.70;42.34
71514;DHT22;59335;46.652;21.272;2022-07-06T15:00:32;31.67;42.27
71514;DHT22;59335;46.652;21.272;2022-07-06T15:03:35;31.68;42.24
71514;DHT22;59335;46.652;21.272;2022-07-06T15:06:38;31.70;42.17
71514;DHT22;59335;46.652;21.272;2022-07-06T15:09:58;31.70;42.14
71514;DHT22;59335;46.652;21.272;2022-07-06T15:13:00;31.65;42.09
71514;DHT22;59335;46.652;21.272;2022-07-06T15:16:04;31.67;42.10
71514;DHT22;59335;46.652;21.272;2022-07-06T15:19:07;31.67;42.07
71514;DHT22;59335;46.652;21.272;2022-07-06T15:22:11;31.68;42.07
71514;DHT22;59335;46.652;21.272;2022-07-06T15:25:14;31.67;42.08
71514;DHT22;59335;46.652;21.272;2022-07-06T15:28:16;31.70;41.96
71514;DHT22;59335;46.652;21.272;2022-07-06T15:31:21;31.70;41.93
71514;DHT22;59335;46.652;21.272;2022-07-06T15:34:25;31.68;41.90
71514;DHT22;59335;46.652;21.272;2022-07-06T15:37:27;31.67;41.92
71514;DHT22;59335;46.652;21.272;2022-07-06T15:40:30;31.70;41.87
71514;DHT22;59335;46.652;21.272;2022-07-06T15:43:45;31.71;41.87
71514;DHT22;59335;46.652;21.272;2022-07-06T15:46:56;31.72;41.81
71514;DHT22;59335;46.652;21.272;2022-07-06T15:49:58;31.70;41.87
71514;DHT22;59335;46.652;21.272;2022-07-06T15:53:02;31.72;41.83
71514;DHT22;59335;46.652;21.272;2022-07-06T15:56:05;31.72;41.83
71514;DHT22;59335;46.652;21.272;2022-07-06T15:59:07;31.74;41.81
71514;DHT22;59335;46.652;21.272;2022-07-06T16:02:10;31.72;41.79
71514;DHT22;59335;46.652;21.272;2022-07-06T16:05:13;31.74;41.80
71514;DHT22;59335;46.652;21.272;2022-07-06T16:08:16;31.71;41.81
71514;DHT22;59335;46.652;21.272;2022-07-06T16:11:30;31.71;41.81
71514;DHT22;59335;46.652;21.272;2022-07-06T16:14:32;31.72;41.77
71514;DHT22;59335;46.652;21.272;2022-07-06T16:17:35;31.74;41.81
71514;DHT22;59335;46.652;21.272;2022-07-06T16:20:38;31.71;41.80
71514;DHT22;59335;46.652;21.272;2022-07-06T16:23:40;31.71;41.83
71514;DHT22;59335;46.652;21.272;2022-07-06T16:26:43;31.70;41.81
71514;DHT22;59335;46.652;21.272;2022-07-06T16:29:46;31.68;41.79
71514;DHT22;59335;46.652;21.272;2022-07-06T16:32:49;31.70;41.81
71514;DHT22;59335;46.652;21.272;2022-07-06T16:35:52;31.71;41.80
71514;DHT22;59335;46.652;21.272;2022-07-06T16:39:01;31.70;41.74
71514;DHT22;59335;46.652;21.272;2022-07-06T16:42:04;31.68;41.71
71514;DHT22;59335;46.652;21.272;2022-07-06T16:45:07;31.70;41.74
71514;DHT22;59335;46.652;21.272;2022-07-06T16:48:10;31.70;41.74
71514;DHT22;59335;46.652;21.272;2022-07-06T16:51:13;31.70;41.76
71514;DHT22;59335;46.652;21.272;2022-07-06T16:54:16;31.71;41.67
71514;DHT22;59335;46.652;21.272;2022-07-06T16:57:18;31.70;41.66
71514;DHT22;59335;46.652;21.272;2022-07-06T17:00:21;31.68;41.63
71514;DHT22;59335;46.652;21.272;2022-07-06T17:03:24;31.68;41.61
71514;DHT22;59335;46.652;21.272;2022-07-06T17:06:27;31.70;41.61
71514;DHT22;59335;46.652;21.272;2022-07-06T17:09:30;31.70;41.54
71514;DHT22;59335;46.652;21.272;2022-07-06T17:12:33;31.68;41.54
71514;DHT22;59335;46.652;21.272;2022-07-06T17:15:36;31.68;41.52
71514;DHT22;59335;46.652;21.272;2022-07-06T17:18:39;31.70;41.51
71514;DHT22;59335;46.652;21.272;2022-07-06T17:21:42;31.65;41.48
71514;DHT22;59335;46.652;21.272;2022-07-06T17:24:45;31.71;41.47
71514;DHT22;59335;46.652;21.272;2022-07-06T17:27:48;31.67;41.48
71514;DHT22;59335;46.652;21.272;2022-07-06T17:30:56;31.70;41.47
71514;DHT22;59335;46.652;21.272;2022-07-06T17:33:58;31.67;41.41
71514;DHT22;59335;46.652;21.272;2022-07-06T17:37:02;31.71;41.48
71514;DHT22;59335;46.652;21.272;2022-07-06T17:40:05;31.67;41.45
71514;DHT22;59335;46.652;21.272;2022-07-06T17:43:08;31.68;41.41
71514;DHT22;59335;46.652;21.272;2022-07-06T17:46:11;31.67;41.41
71514;DHT22;59335;46.652;21.272;2022-07-06T17:49:13;31.67;41.42
71514;DHT22;59335;46.652;21.272;2022-07-06T17:52:21;31.67;41.42
71514;DHT22;59335;46.652;21.272;2022-07-06T17:55:24;31.70;41.35
71514;DHT22;59335;46.652;21.272;2022-07-06T17:58:26;31.62;41.43
71514;DHT22;59335;46.652;21.272;2022-07-06T18:01:29;31.65;41.41
71514;DHT22;59335;46.652;21.272;2022-07-06T18:04:32;31.65;41.38
71514;DHT22;59335;46.652;21.272;2022-07-06T18:07:36;31.62;41.43
71514;DHT22;59335;46.652;21.272;2022-07-06T18:10:40;31.64;41.40
71514;DHT22;59335;46.652;21.272;2022-07-06T18:13:42;31.64;41.42
71514;DHT22;59335;46.652;21.272;2022-07-06T18:16:45;31.62;41.41
71514;DHT22;59335;46.652;21.272;2022-07-06T18:19:49;31.61;41.42
71514;DHT22;59335;46.652;21.272;2022-07-06T18:22:52;31.60;41.44
71514;DHT22;59335;46.652;21.272;2022-07-06T18:25:55;31.60;41.46
71514;DHT22;59335;46.652;21.272;2022-07-06T18:28:59;31.58;41.53
71514;DHT22;59335;46.652;21.272;2022-07-06T18:32:03;31.55;41.57
71514;DHT22;59335;46.652;21.272;2022-07-06T18:35:06;31.61;41.47
71514;DHT22;59335;46.652;21.272;2022-07-06T18:38:10;31.51;41.74
71514;DHT22;59335;46.652;21.272;2022-07-06T18:41:14;31.52;41.72
71514;DHT22;59335;46.652;21.272;2022-07-06T18:44:17;31.54;41.66
71514;DHT22;59335;46.652;21.272;2022-07-06T18:47:20;31.54;41.72
71514;DHT22;59335;46.652;21.272;2022-07-06T18:50:24;31.52;41.58
71514;DHT22;59335;46.652;21.272;2022-07-06T18:53:27;31.55;41.60
71514;DHT22;59335;46.652;21.272;2022-07-06T18:56:31;31.51;41.68
71514;DHT22;59335;46.652;21.272;2022-07-06T18:59:34;31.52;41.65
71514;DHT22;59335;46.652;21.272;2022-07-06T19:02:44;31.52;41.59
71514;DHT22;59335;46.652;21.272;2022-07-06T19:05:48;31.52;41.61
71514;DHT22;59335;46.652;21.272;2022-07-06T19:08:51;31.48;41.65
71514;DHT22;59335;46.652;21.272;2022-07-06T19:11:54;31.50;41.63